Time;durP1;ratioP1;P1;durP2;ratioP2;P2;SDS_P1;SDS_P2;PMS_P1;PMS_P2;Temp;Humidity;BMP_temperature;BMP_pressure;BME280_temperature;BME280_humidity;BME280_pressure;Samples;Min_cycle;Max_cycle;Signal;HPM_P1;HPM_P2
2021/11/01 00:01:21;;;;;;;;;;;22.00;36.50;;;;;;479542;248;1142;-71
2021/11/01 00:03:22;;;;;;;;;;;21.90;36.50;;;;;;479571;248;2190;-71
2021/11/01 00:05:25;;;;;;;;;;;22.00;36.30;;;;;;479634;248;1101;-71
2021/11/01 00:07:25;;;;;;;;;;;22.10;36.30;;;;;;479500;248;1307;-71
2021/11/01 00:09:28;;;;;;;;;;;22.10;36.10;;;;;;479622;248;1058;-71
2021/11/01 00:11:27;;;;;;;;;;;21.90;36.20;;;;;;479437;248;1375;-71
2021/11/01 00:13:29;;;;;;;;;;;21.80;36.40;;;;;;479557;248;978;-71
2021/11/01 00:15:30;;;;;;;;;;;21.90;36.60;;;;;;479689;248;1129;-71
2021/11/01 00:17:31;;;;;;;;;;;21.80;36.40;;;;;;479588;248;1021;-71
2021/11/01 00:19:33;;;;;;;;;;;21.80;36.40;;;;;;479652;248;1015;-71
2021/11/01 00:21:34;;;;;;;;;;;21.70;36.60;;;;;;479530;248;1139;-71
2021/11/01 00:23:35;;;;;;;;;;;21.80;36.50;;;;;;479594;248;2189;-71
2021/11/01 00:25:37;;;;;;;;;;;21.80;36.40;;;;;;479573;248;1083;-71
2021/11/01 00:27:38;;;;;;;;;;;21.70;36.50;;;;;;479460;248;1068;-71
2021/11/01 00:29:39;;;;;;;;;;;21.90;36.20;;;;;;479638;248;1276;-71
2021/11/01 00:31:41;;;;;;;;;;;21.90;36.30;;;;;;479534;248;1145;-71
2021/11/01 00:33:42;;;;;;;;;;;21.90;36.20;;;;;;479644;248;1217;-71
2021/11/01 00:35:43;;;;;;;;;;;21.90;36.10;;;;;;479606;248;1201;-71
2021/11/01 00:37:45;;;;;;;;;;;21.80;36.20;;;;;;479591;248;1153;-71
2021/11/01 00:39:47;;;;;;;;;;;21.90;36.20;;;;;;479597;248;1148;-71
2021/11/01 00:41:48;;;;;;;;;;;21.80;36.30;;;;;;479461;248;1181;-71
2021/11/01 00:43:49;;;;;;;;;;;21.70;36.40;;;;;;479577;248;2189;-71
2021/11/01 00:45:51;;;;;;;;;;;21.80;36.30;;;;;;479584;248;1100;-71
2021/11/01 00:47:52;;;;;;;;;;;21.80;36.30;;;;;;479571;248;957;-71
2021/11/01 00:49:54;;;;;;;;;;;21.70;36.50;;;;;;479668;248;974;-71
2021/11/01 00:51:55;;;;;;;;;;;21.70;36.50;;;;;;479619;248;1478;-71
2021/11/01 00:53:56;;;;;;;;;;;21.70;36.40;;;;;;479660;248;1026;-71
2021/11/01 00:55:57;;;;;;;;;;;21.80;36.20;;;;;;479629;245;1105;-71
2021/11/01 00:57:59;;;;;;;;;;;21.80;36.20;;;;;;479571;248;1116;-71
2021/11/01 01:00:00;;;;;;;;;;;21.80;36.20;;;;;;479580;246;983;-71
2021/11/01 01:02:01;;;;;;;;;;;21.70;36.30;;;;;;479509;248;1094;-71
2021/11/01 01:04:02;;;;;;;;;;;21.70;36.30;;;;;;479570;248;2183;-71
2021/11/01 01:06:04;;;;;;;;;;;21.70;36.10;;;;;;479616;245;1199;-71
2021/11/01 01:08:05;;;;;;;;;;;21.80;36.20;;;;;;479595;248;1177;-71
2021/11/01 01:10:06;;;;;;;;;;;21.80;36.10;;;;;;479625;248;958;-71
2021/11/01 01:12:08;;;;;;;;;;;21.70;36.20;;;;;;479530;248;1090;-71
2021/11/01 01:14:09;;;;;;;;;;;21.70;36.20;;;;;;479624;248;1066;-71
2021/11/01 01:16:12;;;;;;;;;;;21.70;36.30;;;;;;479667;245;1232;-71
2021/11/01 01:18:15;;;;;;;;;;;21.80;36.20;;;;;;479548;248;1432;-71
2021/11/01 01:20:14;;;;;;;;;;;21.70;36.10;;;;;;479447;248;1430;-71
2021/11/01 01:22:21;;;;;;;;;;;21.80;36.20;;;;;;479477;248;1520;-71
2021/11/01 01:24:17;;;;;;;;;;;21.70;36.20;;;;;;479347;248;2197;-71
2021/11/01 01:26:18;;;;;;;;;;;21.70;36.20;;;;;;479633;248;1236;-71
2021/11/01 01:28:19;;;;;;;;;;;21.70;36.20;;;;;;479585;248;1057;-71
2021/11/01 01:30:20;;;;;;;;;;;21.80;36.00;;;;;;479718;248;959;-71
2021/11/01 01:32:22;;;;;;;;;;;21.70;36.10;;;;;;479613;248;1043;-71
2021/11/01 01:34:23;;;;;;;;;;;21.70;36.10;;;;;;479652;248;999;-71
2021/11/01 01:36:25;;;;;;;;;;;21.70;36.10;;;;;;479606;248;1225;-71
2021/11/01 01:38:26;;;;;;;;;;;21.50;36.20;;;;;;479644;248;1117;-71
2021/11/01 01:40:28;;;;;;;;;;;21.80;36.00;;;;;;479607;248;1221;-71
2021/11/01 01:42:29;;;;;;;;;;;21.70;35.90;;;;;;479496;248;1082;-71
2021/11/01 01:44:30;;;;;;;;;;;21.80;36.10;;;;;;479634;248;2185;-71
2021/11/01 01:46:32;;;;;;;;;;;22.10;35.30;;;;;;479607;248;1156;-71
2021/11/01 01:48:33;;;;;;;;;;;21.80;35.80;;;;;;479641;248;1106;-71
2021/11/01 01:50:34;;;;;;;;;;;21.80;35.90;;;;;;479555;248;1351;-71
2021/11/01 01:52:36;;;;;;;;;;;21.80;35.70;;;;;;479475;248;1135;-71
2021/11/01 01:54:37;;;;;;;;;;;21.90;35.70;;;;;;479642;248;1135;-71
2021/11/01 01:56:38;;;;;;;;;;;21.80;35.80;;;;;;479583;248;1211;-71
2021/11/01 01:58:47;;;;;;;;;;;21.80;35.90;;;;;;479602;248;1036;-71
2021/11/01 02:00:58;;;;;;;;;;;21.70;35.80;;;;;;479312;248;1460;-71
2021/11/01 02:02:52;;;;;;;;;;;21.60;36.10;;;;;;479113;248;1403;-71
2021/11/01 02:04:53;;;;;;;;;;;21.90;35.50;;;;;;479597;248;2182;-71
2021/11/01 02:06:55;;;;;;;;;;;21.60;36.00;;;;;;479521;248;1233;-71
2021/11/01 02:08:56;;;;;;;;;;;21.80;35.70;;;;;;479565;248;1432;-71
2021/11/01 02:10:57;;;;;;;;;;;21.60;35.90;;;;;;479604;248;1219;-71
2021/11/01 02:12:58;;;;;;;;;;;21.60;35.80;;;;;;479616;248;1173;-71
2021/11/01 02:15:00;;;;;;;;;;;21.90;35.60;;;;;;479643;248;1039;-71
2021/11/01 02:17:01;;;;;;;;;;;21.60;35.80;;;;;;479560;248;1118;-71
2021/11/01 02:19:07;;;;;;;;;;;21.80;35.60;;;;;;479692;248;989;-71
2021/11/01 02:21:05;;;;;;;;;;;21.60;35.80;;;;;;479301;245;1371;-71
2021/11/01 02:23:05;;;;;;;;;;;21.70;35.60;;;;;;479576;248;1339;-71
2021/11/01 02:25:06;;;;;;;;;;;21.80;35.60;;;;;;479669;248;2186;-71
2021/11/01 02:27:10;;;;;;;;;;;21.60;36.00;;;;;;479560;248;1257;-71
2021/11/01 02:29:10;;;;;;;;;;;21.80;35.60;;;;;;479554;248;1327;-71
2021/11/01 02:31:11;;;;;;;;;;;21.90;35.40;;;;;;479577;245;1227;-71
2021/11/01 02:33:13;;;;;;;;;;;21.60;35.70;;;;;;479612;248;1011;-71
2021/11/01 02:35:14;;;;;;;;;;;21.60;35.90;;;;;;479643;248;998;-71
2021/11/01 02:37:15;;;;;;;;;;;21.70;35.90;;;;;;479569;248;1164;-71
2021/11/01 02:39:17;;;;;;;;;;;21.60;35.80;;;;;;479699;248;1155;-71
2021/11/01 02:41:18;;;;;;;;;;;21.60;36.00;;;;;;479588;248;1207;-71
2021/11/01 02:43:20;;;;;;;;;;;21.70;35.80;;;;;;479597;248;1134;-71
2021/11/01 02:45:21;;;;;;;;;;;21.70;36.00;;;;;;479620;248;2336;-71
2021/11/01 02:47:22;;;;;;;;;;;21.50;35.90;;;;;;479485;248;1073;-71
2021/11/01 02:49:24;;;;;;;;;;;21.80;35.80;;;;;;479603;248;1004;-71
2021/11/01 02:51:25;;;;;;;;;;;21.50;35.80;;;;;;479573;248;1219;-71
2021/11/01 02:53:27;;;;;;;;;;;21.80;35.60;;;;;;479603;248;1101;-71
2021/11/01 02:55:28;;;;;;;;;;;21.80;35.50;;;;;;479645;248;1445;-71
2021/11/01 02:57:29;;;;;;;;;;;21.80;35.60;;;;;;479609;248;1135;-71
2021/11/01 02:59:30;;;;;;;;;;;21.80;35.60;;;;;;479635;248;976;-71
2021/11/01 03:01:32;;;;;;;;;;;21.70;35.60;;;;;;479559;248;1315;-71
2021/11/01 03:03:34;;;;;;;;;;;21.80;35.30;;;;;;479575;248;1347;-71
2021/11/01 03:05:36;;;;;;;;;;;21.70;35.70;;;;;;479560;248;2186;-71
2021/11/01 03:07:37;;;;;;;;;;;21.80;35.30;;;;;;479532;248;1415;-71
2021/11/01 03:09:38;;;;;;;;;;;21.80;35.50;;;;;;479631;248;1166;-71
2021/11/01 03:11:39;;;;;;;;;;;21.80;35.50;;;;;;479523;248;962;-71
2021/11/01 03:13:40;;;;;;;;;;;21.80;35.50;;;;;;479683;248;952;-71
2021/11/01 03:15:41;;;;;;;;;;;21.60;35.70;;;;;;479686;248;957;-71
2021/11/01 03:17:43;;;;;;;;;;;21.70;35.50;;;;;;479605;248;1109;-71
2021/11/01 03:19:44;;;;;;;;;;;21.90;35.40;;;;;;479712;248;1058;-71
2021/11/01 03:21:46;;;;;;;;;;;21.80;35.40;;;;;;479644;248;1228;-71
2021/11/01 03:23:48;;;;;;;;;;;21.70;35.50;;;;;;479675;248;1238;-71
2021/11/01 03:25:49;;;;;;;;;;;21.90;35.30;;;;;;479538;248;2186;-71
2021/11/01 03:27:51;;;;;;;;;;;21.70;35.50;;;;;;479626;248;1064;-71
2021/11/01 03:29:52;;;;;;;;;;;21.80;35.50;;;;;;479699;248;960;-71
2021/11/01 03:31:53;;;;;;;;;;;21.70;35.50;;;;;;479629;245;1219;-71
2021/11/01 03:33:54;;;;;;;;;;;21.70;35.40;;;;;;479666;248;1100;-71
2021/11/01 03:35:56;;;;;;;;;;;21.70;35.40;;;;;;479614;248;1076;-71
2021/11/01 03:37:58;;;;;;;;;;;21.70;35.40;;;;;;479625;248;1079;-71
2021/11/01 03:39:59;;;;;;;;;;;21.90;35.30;;;;;;479582;248;1336;-71
2021/11/01 03:42:00;;;;;;;;;;;21.60;35.40;;;;;;479501;248;1438;-71
2021/11/01 03:44:03;;;;;;;;;;;21.70;35.50;;;;;;479635;248;2138;-71
2021/11/01 03:46:05;;;;;;;;;;;21.70;35.50;;;;;;479516;248;1411;-71
2021/11/01 03:48:06;;;;;;;;;;;21.70;35.30;;;;;;479555;248;1343;-71
2021/11/01 03:50:16;;;;;;;;;;;21.80;35.30;;;;;;479518;248;1367;-71
2021/11/01 03:52:11;;;;;;;;;;;21.60;35.40;;;;;;478962;248;1422;-71
2021/11/01 03:54:11;;;;;;;;;;;21.70;35.50;;;;;;479602;248;1394;-71
2021/11/01 03:56:12;;;;;;;;;;;21.70;35.20;;;;;;479618;248;1022;-71
2021/11/01 03:58:13;;;;;;;;;;;21.90;35.00;;;;;;479655;248;1024;-71
2021/11/01 04:00:15;;;;;;;;;;;21.90;35.10;;;;;;479626;248;1221;-71
2021/11/01 04:02:16;;;;;;;;;;;21.80;35.10;;;;;;479685;248;1095;-71
2021/11/01 04:04:18;;;;;;;;;;;21.70;35.00;;;;;;479620;248;2111;-71
2021/11/01 04:06:21;;;;;;;;;;;21.70;35.10;;;;;;479604;248;1141;-71
2021/11/01 04:08:21;;;;;;;;;;;21.60;35.30;;;;;;479540;248;1465;-71
2021/11/01 04:10:21;;;;;;;;;;;21.70;35.30;;;;;;479630;248;1402;-71
2021/11/01 04:12:23;;;;;;;;;;;21.70;35.20;;;;;;479623;248;1182;-71
2021/11/01 04:14:27;;;;;;;;;;;21.60;35.20;;;;;;479661;248;1149;-71
2021/11/01 04:16:30;;;;;;;;;;;21.60;35.30;;;;;;479432;248;1384;-71
2021/11/01 04:18:34;;;;;;;;;;;21.60;35.30;;;;;;479365;248;1444;-71
2021/11/01 04:20:36;;;;;;;;;;;21.60;35.30;;;;;;479284;248;1440;-71
2021/11/01 04:22:35;;;;;;;;;;;21.60;35.30;;;;;;479335;248;1350;-71
2021/11/01 04:24:34;;;;;;;;;;;21.60;35.20;;;;;;479582;248;2146;-71
2021/11/01 04:26:36;;;;;;;;;;;21.50;35.30;;;;;;479582;248;1203;-71
2021/11/01 04:28:37;;;;;;;;;;;21.60;35.40;;;;;;479780;248;1056;-71
2021/11/01 04:30:40;;;;;;;;;;;21.60;35.30;;;;;;479661;248;1176;-71
2021/11/01 04:32:41;;;;;;;;;;;21.60;35.30;;;;;;479484;248;1285;-71
2021/11/01 04:34:44;;;;;;;;;;;21.50;35.40;;;;;;479629;248;1420;-71
2021/11/01 04:36:43;;;;;;;;;;;21.70;35.50;;;;;;479468;248;1378;-71
2021/11/01 04:38:56;;;;;;;;;;;21.60;35.30;;;;;;479602;248;955;-71
2021/11/01 04:40:54;;;;;;;;;;;21.50;35.40;;;;;;478892;248;1422;-71
2021/11/01 04:43:13;;;;;;;;;;;21.60;35.30;;;;;;479310;248;1311;-71
2021/11/01 04:54:48;;;;;;;;;;;21.70;35.40;;;;;;479658;248;1256;-71
2021/11/01 04:56:48;;;;;;;;;;;21.70;35.40;;;;;;479584;248;1437;-71
2021/11/01 04:58:49;;;;;;;;;;;21.70;35.50;;;;;;479669;248;1042;-71
2021/11/01 05:00:52;;;;;;;;;;;21.70;35.40;;;;;;479646;245;1219;-71
2021/11/01 05:02:58;;;;;;;;;;;21.60;35.50;;;;;;479633;248;1482;-71
2021/11/01 05:04:56;;;;;;;;;;;21.70;35.50;;;;;;479449;248;2187;-71
2021/11/01 05:07:00;;;;;;;;;;;21.80;35.10;;;;;;479512;248;1219;-71
2021/11/01 05:09:01;;;;;;;;;;;22.10;34.90;;;;;;479482;248;1898;-71
2021/11/01 05:11:04;;;;;;;;;;;22.00;34.90;;;;;;479367;248;1372;-71
2021/11/01 05:13:01;;;;;;;;;;;22.10;34.90;;;;;;479377;248;1339;-71
2021/11/01 05:15:08;;;;;;;;;;;21.90;34.90;;;;;;479656;248;1053;-71
2021/11/01 05:17:26;;;;;;;;;;;21.70;35.20;;;;;;479250;248;1433;-71
2021/11/01 05:19:25;;;;;;;;;;;21.70;35.40;;;;;;479306;248;1220;-71
2021/11/01 05:21:31;;;;;;;;;;;21.90;35.10;;;;;;479291;248;1471;-71
2021/11/01 05:23:33;;;;;;;;;;;21.90;34.90;;;;;;479205;248;1303;-71
2021/11/01 05:25:37;;;;;;;;;;;21.90;35.00;;;;;;479422;248;2193;-71
2021/11/01 05:27:46;;;;;;;;;;;21.90;35.00;;;;;;479216;248;1448;-71
2021/11/01 05:29:47;;;;;;;;;;;21.90;34.90;;;;;;479445;248;1409;-71
2021/11/01 05:31:49;;;;;;;;;;;21.80;35.10;;;;;;479381;248;1388;-71
2021/11/01 05:34:00;;;;;;;;;;;22.00;34.80;;;;;;479380;248;1428;-71
2021/11/01 05:35:57;;;;;;;;;;;22.30;34.20;;;;;;479350;248;1905;-71
2021/11/01 05:37:58;;;;;;;;;;;22.40;34.10;;;;;;479632;248;1011;-71
2021/11/01 05:40:00;;;;;;;;;;;22.70;33.60;;;;;;479703;248;1059;-71
2021/11/01 05:42:01;;;;;;;;;;;22.70;33.60;;;;;;479599;248;1182;-71
2021/11/01 05:44:02;;;;;;;;;;;22.80;33.30;;;;;;479642;248;941;-71
2021/11/01 05:46:04;;;;;;;;;;;22.90;33.30;;;;;;479537;248;2186;-71
2021/11/01 05:48:05;;;;;;;;;;;23.00;33.20;;;;;;479579;248;1119;-71
2021/11/01 05:50:06;;;;;;;;;;;23.00;33.10;;;;;;479602;248;955;-71
2021/11/01 05:52:14;;;;;;;;;;;22.90;33.20;;;;;;479536;248;1077;-71
2021/11/01 05:54:12;;;;;;;;;;;22.80;33.20;;;;;;479249;248;1412;-71
2021/11/01 05:56:21;;;;;;;;;;;22.80;33.20;;;;;;479398;248;1408;-71
2021/11/01 05:58:19;;;;;;;;;;;23.00;33.10;;;;;;479195;248;1337;-71
2021/11/01 06:00:35;;;;;;;;;;;23.00;33.00;;;;;;479433;248;1281;-71
2021/11/01 06:02:38;;;;;;;;;;;22.90;33.10;;;;;;478916;248;1460;-71
2021/11/01 06:04:50;;;;;;;;;;;22.90;33.10;;;;;;479527;248;1468;-71
2021/11/01 06:07:00;;;;;;;;;;;22.90;33.10;;;;;;479347;248;2186;-71
2021/11/01 06:09:05;;;;;;;;;;;22.70;33.20;;;;;;479417;248;1356;-71
2021/11/01 06:13:29;;;;;;;;;;;22.60;33.40;;;;;;479593;248;1059;-71
2021/11/01 06:15:29;;;;;;;;;;;22.70;33.20;;;;;;479447;248;1353;-71
2021/11/01 06:17:31;;;;;;;;;;;22.70;33.40;;;;;;479463;248;1125;-71
2021/11/01 06:19:31;;;;;;;;;;;22.60;33.40;;;;;;479602;248;1443;-71
2021/11/01 06:21:33;;;;;;;;;;;22.50;33.50;;;;;;479565;248;1196;-71
2021/11/01 06:23:35;;;;;;;;;;;22.50;33.60;;;;;;479693;248;1188;-71
2021/11/01 06:25:36;;;;;;;;;;;22.50;33.60;;;;;;479644;245;2193;-71
2021/11/01 06:27:38;;;;;;;;;;;22.50;33.60;;;;;;479604;248;1287;-71
2021/11/01 06:29:50;;;;;;;;;;;22.70;33.50;;;;;;479614;248;1335;-71
2021/11/01 06:31:56;;;;;;;;;;;22.60;33.50;;;;;;479219;248;1411;-71
2021/11/01 06:33:55;;;;;;;;;;;22.60;33.70;;;;;;478952;248;1460;-71
2021/11/01 06:40:40;;;;;;;;;;;22.40;34.00;;;;;;479513;247;1237;-71
2021/11/01 06:42:41;;;;;;;;;;;22.40;34.00;;;;;;479379;248;1457;-71
2021/11/01 06:44:55;;;;;;;;;;;22.40;34.00;;;;;;479578;248;1470;-71
2021/11/01 06:52:00;;;;;;;;;;;22.50;34.10;;;;;;479624;249;1156;-71
2021/11/01 06:58:51;;;;;;;;;;;22.40;34.40;;;;;;479406;248;1191;-71
2021/11/01 07:14:54;;;;;;;;;;;22.40;34.90;;;;;;479633;249;958;-71
2021/11/01 07:16:57;;;;;;;;;;;22.40;35.00;;;;;;479374;248;1602;-71
2021/11/01 07:19:00;;;;;;;;;;;22.40;35.10;;;;;;479471;248;1361;-71
2021/11/01 07:21:09;;;;;;;;;;;22.30;35.20;;;;;;479305;248;1425;-71
2021/11/01 07:30:54;;;;;;;;;;;22.30;35.50;;;;;;467876;254;1107;-71
2021/11/01 08:22:19;;;;;;;;;;;22.40;37.70;;;;;;467658;254;1168;-71
2021/11/01 08:27:18;;;;;;;;;;;22.20;38.20;;;;;;473964;248;2180;-71
2021/11/01 08:29:22;;;;;;;;;;;22.00;38.70;;;;;;478824;248;1490;-71
2021/11/01 08:46:12;;;;;;;;;;;21.90;39.40;;;;;;467935;254;2196;-71
2021/11/01 08:48:23;;;;;;;;;;;22.00;39.30;;;;;;474596;248;1551;-71
2021/11/01 08:50:40;;;;;;;;;;;22.40;38.80;;;;;;479037;248;1372;-71
2021/11/01 09:02:20;;;;;;;;;;;22.80;37.90;;;;;;479543;246;1179;-71
2021/11/01 09:04:13;;;;;;;;;;;22.90;37.90;;;;;;478707;248;1949;-71
2021/11/01 09:06:26;;;;;;;;;;;23.10;37.60;;;;;;479365;248;2143;-71
2021/11/01 09:20:27;;;;;;;;;;;23.50;37.00;;;;;;479603;248;1301;-71
2021/11/01 09:24:45;;;;;;;;;;;23.50;37.00;;;;;;479617;248;977;-71
2021/11/01 09:26:45;;;;;;;;;;;23.20;37.20;;;;;;479341;248;2139;-71
2021/11/01 09:28:52;;;;;;;;;;;23.30;37.00;;;;;;479577;248;1423;-71
2021/11/01 09:38:19;;;;;;;;;;;23.40;37.10;;;;;;467789;254;1085;-71
2021/11/01 09:42:37;;;;;;;;;;;23.30;37.30;;;;;;463671;255;1458;-71
2021/11/01 09:44:38;;;;;;;;;;;23.40;37.10;;;;;;468003;254;1201;-71
2021/11/01 09:46:40;;;;;;;;;;;23.40;37.20;;;;;;467825;253;2132;-71
2021/11/01 09:48:41;;;;;;;;;;;23.40;37.10;;;;;;467891;255;1093;-71
2021/11/01 09:50:42;;;;;;;;;;;23.30;37.30;;;;;;467837;254;1223;-71
2021/11/01 09:52:44;;;;;;;;;;;23.20;37.40;;;;;;467834;255;1306;-71
2021/11/01 09:54:46;;;;;;;;;;;23.40;37.30;;;;;;467947;254;1062;-71
2021/11/01 09:56:56;;;;;;;;;;;23.10;37.60;;;;;;467765;253;1334;-71
2021/11/01 10:01:07;;;;;;;;;;;23.20;37.60;;;;;;467826;254;1482;-71
2021/11/01 10:03:08;;;;;;;;;;;23.20;37.60;;;;;;467857;254;1335;-71
2021/11/01 10:05:10;;;;;;;;;;;23.30;37.40;;;;;;467888;254;1100;-71
2021/11/01 10:07:20;;;;;;;;;;;23.40;37.30;;;;;;467767;254;2188;-71
2021/11/01 10:09:21;;;;;;;;;;;23.20;37.60;;;;;;473006;249;1448;-71
2021/11/01 10:11:22;;;;;;;;;;;23.30;37.40;;;;;;479540;248;1197;-71
2021/11/01 10:13:24;;;;;;;;;;;23.30;37.50;;;;;;479600;248;1147;-71
2021/11/01 10:17:44;;;;;;;;;;;23.10;37.60;;;;;;479510;246;1205;-71
2021/11/01 10:19:46;;;;;;;;;;;23.20;37.60;;;;;;479558;248;992;-71
2021/11/01 10:21:47;;;;;;;;;;;23.30;37.50;;;;;;479611;248;1236;-71
2021/11/01 10:23:48;;;;;;;;;;;23.10;37.80;;;;;;479615;248;977;-71
2021/11/01 10:25:50;;;;;;;;;;;23.10;37.80;;;;;;479536;248;1322;-71
2021/11/01 10:27:56;;;;;;;;;;;23.10;37.80;;;;;;479608;248;2127;-71
2021/11/01 10:29:53;;;;;;;;;;;23.00;37.90;;;;;;479354;248;1430;-71
2021/11/01 10:31:54;;;;;;;;;;;23.10;37.90;;;;;;479529;248;1105;-71
2021/11/01 10:33:55;;;;;;;;;;;23.10;37.60;;;;;;479549;248;1053;-71
2021/11/01 10:35:57;;;;;;;;;;;23.10;38.00;;;;;;479497;248;1264;-71
2021/11/01 10:37:58;;;;;;;;;;;23.20;37.80;;;;;;479463;248;1102;-71
2021/11/01 10:40:04;;;;;;;;;;;23.10;37.90;;;;;;479597;248;1109;-71
2021/11/01 10:42:11;;;;;;;;;;;23.10;37.90;;;;;;479226;248;1373;-71
2021/11/01 10:44:14;;;;;;;;;;;23.30;37.70;;;;;;479141;248;1369;-71
2021/11/01 10:58:24;;;;;;;;;;;23.10;38.00;;;;;;479563;249;1183;-71
2021/11/01 11:12:11;;;;;;;;;;;23.10;38.20;;;;;;479527;246;1108;-71
2021/11/01 11:14:17;;;;;;;;;;;23.00;38.30;;;;;;479249;248;1398;-71
2021/11/01 11:16:21;;;;;;;;;;;23.00;38.50;;;;;;479145;248;1545;-71
2021/11/01 11:18:36;;;;;;;;;;;23.20;38.50;;;;;;478956;248;1384;-71
2021/11/01 11:25:34;;;;;;;;;;;23.40;38.30;;;;;;479653;246;1131;-71
2021/11/01 11:30:10;;;;;;;;;;;23.40;38.20;;;;;;467872;255;1204;-71
2021/11/01 11:39:26;;;;;;;;;;;23.40;38.20;;;;;;479437;248;1035;-71
2021/11/01 11:43:50;;;;;;;;;;;23.40;38.50;;;;;;479610;249;966;-71
2021/11/01 11:48:17;;;;;;;;;;;23.40;38.40;;;;;;479571;247;2110;-71
2021/11/01 11:50:13;;;;;;;;;;;23.40;38.50;;;;;;479297;248;1451;-71
2021/11/01 11:52:14;;;;;;;;;;;23.50;38.40;;;;;;479495;248;1074;-71
2021/11/01 11:54:15;;;;;;;;;;;23.50;38.30;;;;;;479546;248;979;-71
2021/11/01 11:56:17;;;;;;;;;;;23.40;38.70;;;;;;479542;248;1088;-71
2021/11/01 11:58:18;;;;;;;;;;;23.40;38.70;;;;;;479556;248;1431;-71
2021/11/01 12:00:19;;;;;;;;;;;23.60;38.40;;;;;;479611;248;1278;-71
2021/11/01 12:02:21;;;;;;;;;;;23.60;38.50;;;;;;479499;248;1258;-71
2021/11/01 12:04:24;;;;;;;;;;;23.50;38.60;;;;;;479567;248;970;-71
2021/11/01 12:06:23;;;;;;;;;;;23.60;38.50;;;;;;479431;248;2126;-71
2021/11/01 12:08:28;;;;;;;;;;;23.60;38.60;;;;;;479568;248;1362;-71
2021/11/01 12:11:05;;;;;;;;;;;23.70;38.50;;;;;;479369;248;1344;-71
2021/11/01 12:12:59;;;;;;;;;;;23.70;38.40;;;;;;478222;248;1328;-71
2021/11/01 12:17:13;;;;;;;;;;;23.50;38.70;;;;;;479554;247;1114;-71
2021/11/01 12:19:15;;;;;;;;;;;23.60;38.50;;;;;;479641;248;992;-71
2021/11/01 12:21:16;;;;;;;;;;;23.50;38.60;;;;;;479521;245;1326;-71
2021/11/01 12:23:18;;;;;;;;;;;23.50;38.70;;;;;;479558;248;1196;-71
2021/11/01 12:25:21;;;;;;;;;;;23.60;38.80;;;;;;479584;248;1054;-71
2021/11/01 12:27:23;;;;;;;;;;;23.60;38.60;;;;;;479550;248;2177;-71
2021/11/01 12:29:24;;;;;;;;;;;23.50;38.80;;;;;;479630;248;1058;-71
2021/11/01 12:31:25;;;;;;;;;;;23.50;38.90;;;;;;479535;248;1344;-72
2021/11/01 12:33:28;;;;;;;;;;;23.60;38.70;;;;;;479569;248;1108;-71
2021/11/01 12:35:30;;;;;;;;;;;23.50;38.90;;;;;;479493;248;1527;-71
2021/11/01 12:37:32;;;;;;;;;;;23.50;39.10;;;;;;479307;248;1365;-71
2021/11/01 12:39:34;;;;;;;;;;;23.60;39.00;;;;;;479391;248;1427;-71
2021/11/01 12:41:43;;;;;;;;;;;23.50;39.00;;;;;;479264;248;1382;-71
2021/11/01 12:44:21;;;;;;;;;;;23.50;39.20;;;;;;479046;248;1425;-71
2021/11/01 12:48:57;;;;;;;;;;;23.60;39.10;;;;;;479494;248;2170;-71
2021/11/01 12:57:44;;;;;;;;;;;23.60;39.20;;;;;;479408;249;1216;-71
2021/11/01 12:59:46;;;;;;;;;;;23.60;39.00;;;;;;479509;248;1224;-71
2021/11/01 13:01:46;;;;;;;;;;;23.60;39.00;;;;;;479330;248;1305;-71
2021/11/01 13:03:47;;;;;;;;;;;23.50;39.30;;;;;;479547;248;1081;-71
2021/11/01 13:05:53;;;;;;;;;;;23.60;39.20;;;;;;479576;248;1198;-71
2021/11/01 13:07:54;;;;;;;;;;;23.60;39.20;;;;;;479359;248;2182;-71
2021/11/01 13:09:56;;;;;;;;;;;23.70;39.10;;;;;;479530;248;1504;-71
2021/11/01 13:14:57;;;;;;;;;;;23.70;39.00;;;;;;471735;248;1177;-71
2021/11/01 13:19:27;;;;;;;;;;;23.40;39.50;;;;;;467809;255;1151;-71
2021/11/01 13:21:29;;;;;;;;;;;23.60;39.40;;;;;;473784;248;1324;-71
2021/11/01 13:23:33;;;;;;;;;;;23.80;39.10;;;;;;479464;248;1037;-71
2021/11/01 13:25:36;;;;;;;;;;;23.80;39.00;;;;;;479463;248;1433;-71
2021/11/01 13:27:41;;;;;;;;;;;23.60;39.30;;;;;;479394;248;2174;-71
2021/11/01 13:36:37;;;;;;;;;;;23.60;39.00;;;;;;479611;248;1123;-71
2021/11/01 13:38:38;;;;;;;;;;;23.60;39.10;;;;;;479604;246;951;-71
2021/11/01 13:40:42;;;;;;;;;;;23.70;38.90;;;;;;479582;248;1150;-71
2021/11/01 13:42:45;;;;;;;;;;;23.50;39.20;;;;;;479463;248;1436;-71
2021/11/01 13:44:43;;;;;;;;;;;23.60;39.30;;;;;;479340;248;1347;-71
2021/11/01 13:46:44;;;;;;;;;;;23.70;39.10;;;;;;479515;248;1302;-71
2021/11/01 13:48:45;;;;;;;;;;;23.50;39.20;;;;;;479560;248;2198;-71
2021/11/01 13:50:47;;;;;;;;;;;23.40;39.30;;;;;;479625;245;1177;-71
2021/11/01 13:52:48;;;;;;;;;;;23.50;39.30;;;;;;479585;248;1075;-71
2021/11/01 13:54:52;;;;;;;;;;;23.50;39.30;;;;;;479670;248;1045;-71
2021/11/01 13:56:52;;;;;;;;;;;23.60;39.00;;;;;;479363;248;1471;-71
2021/11/01 13:58:58;;;;;;;;;;;23.50;39.10;;;;;;479628;248;1388;-71
2021/11/01 14:01:12;;;;;;;;;;;23.60;39.20;;;;;;479443;245;1411;-71
2021/11/01 14:03:07;;;;;;;;;;;23.60;39.00;;;;;;478611;248;1420;-71
2021/11/01 14:14:49;;;;;;;;;;;23.60;39.10;;;;;;479611;249;1117;-71
2021/11/01 14:16:53;;;;;;;;;;;23.50;39.20;;;;;;479146;248;1336;-71
2021/11/01 14:19:03;;;;;;;;;;;23.60;39.10;;;;;;479373;248;1517;-71
2021/11/01 14:28:23;;;;;;;;;;;23.60;39.10;;;;;;479412;248;2202;-71
2021/11/01 14:30:52;;;;;;;;;;;23.50;39.10;;;;;;479239;248;1412;-71
2021/11/01 14:35:36;;;;;;;;;;;23.50;39.30;;;;;;479612;248;1014;-71
2021/11/01 14:59:01;;;;;;;;;;;23.30;39.80;;;;;;479590;248;1064;-71
2021/11/01 15:01:13;;;;;;;;;;;23.40;39.70;;;;;;478760;248;1431;-71
2021/11/01 15:15:08;;;;;;;;;;;23.80;39.10;;;;;;479599;248;965;-71
2021/11/01 15:17:22;;;;;;;;;;;23.80;39.10;;;;;;479273;248;1503;-71
2021/11/01 15:19:42;;;;;;;;;;;23.80;39.00;;;;;;479253;248;1520;-71
2021/11/01 15:21:40;;;;;;;;;;;23.80;39.10;;;;;;478946;248;1395;-71
2021/11/01 15:23:48;;;;;;;;;;;23.90;39.00;;;;;;479418;248;1338;-71
2021/11/01 15:28:46;;;;;;;;;;;24.00;38.90;;;;;;479528;248;2178;-71
2021/11/01 15:38:17;;;;;;;;;;;23.60;39.40;;;;;;470536;248;1173;-71
2021/11/01 15:40:35;;;;;;;;;;;23.90;39.00;;;;;;479272;248;1338;-71
2021/11/01 16:17:42;;;;;;;;;;;23.60;38.90;;;;;;479581;248;1148;-71
2021/11/01 16:19:38;;;;;;;;;;;23.60;38.90;;;;;;478904;248;1389;-71
2021/11/01 16:21:33;;;;;;;;;;;23.60;38.70;;;;;;479090;248;1401;-71
2021/11/01 16:23:37;;;;;;;;;;;23.60;38.70;;;;;;479642;248;1104;-71
2021/11/01 16:25:38;;;;;;;;;;;23.70;38.50;;;;;;479615;248;1105;-71
2021/11/01 16:27:45;;;;;;;;;;;23.90;38.30;;;;;;479486;248;2205;-71
2021/11/01 16:29:47;;;;;;;;;;;23.90;38.00;;;;;;479231;248;1512;-71
2021/11/01 16:31:47;;;;;;;;;;;23.80;38.10;;;;;;479260;248;1895;-71
2021/11/01 16:33:49;;;;;;;;;;;23.90;38.00;;;;;;479482;248;1377;-71
2021/11/01 16:35:54;;;;;;;;;;;23.60;38.50;;;;;;479487;246;1245;-71
2021/11/01 16:37:57;;;;;;;;;;;23.70;38.30;;;;;;479278;248;1570;-71
2021/11/01 16:39:51;;;;;;;;;;;23.60;38.40;;;;;;479253;248;1360;-71
2021/11/01 16:41:53;;;;;;;;;;;23.70;38.30;;;;;;479488;248;1164;-71
2021/11/01 16:43:54;;;;;;;;;;;23.80;38.10;;;;;;479641;248;1100;-71
2021/11/01 16:45:56;;;;;;;;;;;23.80;37.90;;;;;;479552;248;1233;-71
2021/11/01 16:47:57;;;;;;;;;;;23.90;37.90;;;;;;479578;248;2185;-71
2021/11/01 16:49:58;;;;;;;;;;;23.60;38.20;;;;;;479654;248;1167;-71
2021/11/01 16:52:03;;;;;;;;;;;23.80;37.90;;;;;;479518;248;1186;-71
2021/11/01 16:54:01;;;;;;;;;;;23.60;38.10;;;;;;479439;248;1295;-71
2021/11/01 16:56:16;;;;;;;;;;;23.70;38.10;;;;;;479590;246;1209;-71
2021/11/01 16:58:10;;;;;;;;;;;23.60;38.30;;;;;;478723;248;1287;-71
2021/11/01 17:00:20;;;;;;;;;;;23.70;38.10;;;;;;479341;248;1407;-71
2021/11/01 17:02:30;;;;;;;;;;;23.80;37.70;;;;;;479208;248;1391;-71
2021/11/01 17:04:23;;;;;;;;;;;23.40;38.20;;;;;;479123;243;1316;-71
2021/11/01 17:06:33;;;;;;;;;;;23.60;38.00;;;;;;479540;245;1211;-71
2021/11/01 17:22:36;;;;;;;;;;;23.70;37.80;;;;;;479565;249;1129;-71
2021/11/01 17:24:43;;;;;;;;;;;23.70;37.70;;;;;;479485;249;1390;-71
2021/11/01 17:29:26;;;;;;;;;;;23.80;37.40;;;;;;479540;248;2202;-71
2021/11/01 17:36:16;;;;;;;;;;;24.00;37.20;;;;;;479562;249;1216;-71
2021/11/01 17:38:43;;;;;;;;;;;23.90;37.20;;;;;;479265;248;1389;-71
2021/11/01 18:39:24;;;;;;;;;;;23.70;37.40;;;;;;467833;254;1185;-71
2021/11/01 18:41:21;;;;;;;;;;;23.90;37.10;;;;;;474067;248;1339;-71
2021/11/01 18:46:10;;;;;;;;;;;23.70;37.30;;;;;;472309;248;1161;-71
2021/11/01 18:52:41;;;;;;;;;;;23.90;37.00;;;;;;479597;246;1102;-71